createdAt,value
2018-11-20T00:00:00.252Z,10.78
2018-11-20T00:02:53.926Z,12.05
2018-11-20T00:06:02.848Z,10.60
2018-11-20T00:08:53.110Z,10.28
2018-11-20T00:11:47.522Z,10.00
2018-11-20T00:14:46.513Z,12.50
2018-11-20T00:17:34.176Z,11.93
2018-11-20T00:20:30.288Z,11.03
2018-11-20T00:23:23.865Z,10.55
2018-11-20T00:26:15.633Z,9.70
2018-11-20T00:28:58.087Z,11.18
2018-11-20T00:32:00.459Z,9.50
2018-11-20T00:34:52.734Z,11.88
2018-11-20T00:37:57.623Z,12.20
2018-11-20T00:40:50.079Z,10.70
2018-11-20T00:43:55.043Z,9.08
2018-11-20T00:46:57.576Z,12.15
2018-11-20T00:49:52.180Z,11.73
2018-11-20T00:52:46.466Z,9.80
2018-11-20T00:56:21.204Z,10.32
2018-11-20T00:59:22.967Z,10.90
2018-11-20T01:02:14.251Z,10.88
2018-11-20T01:05:19.276Z,12.15
2018-11-20T01:08:18.965Z,10.85
2018-11-20T01:11:10.063Z,12.65
2018-11-20T01:14:04.767Z,9.45
2018-11-20T01:17:00.793Z,11.38
2018-11-20T01:19:57.212Z,10.13
2018-11-20T01:22:50.785Z,10.70
2018-11-20T01:25:43.018Z,9.75
2018-11-20T01:28:33.880Z,10.90
2018-11-20T01:31:29.748Z,13.35
2018-11-20T01:34:28.852Z,11.65
2018-11-20T01:37:25.688Z,12.33
2018-11-20T01:40:05.768Z,11.60
2018-11-20T01:43:14.480Z,8.98
2018-11-20T01:46:09.824Z,11.85
2018-11-20T01:48:52.939Z,11.30
2018-11-20T01:51:50.993Z,11.93
2018-11-20T01:55:02.195Z,10.40
2018-11-20T01:58:01.601Z,11.33
2018-11-20T02:00:53.841Z,9.95
2018-11-20T02:03:45.318Z,9.90
2018-11-20T02:06:44.565Z,14.47
2018-11-20T02:09:41.007Z,11.25
2018-11-20T02:12:47.568Z,11.60
2018-11-20T02:15:34.996Z,11.40
2018-11-20T02:18:33.686Z,11.45
2018-11-20T02:21:33.096Z,9.43
2018-11-20T02:24:23.687Z,10.98
2018-11-20T02:27:14.807Z,12.07
2018-11-20T02:30:11.140Z,10.93
2018-11-20T02:33:08.130Z,11.08
2018-11-20T02:36:11.245Z,13.43
2018-11-20T09:59:12.463Z,17.90
2018-11-20T10:02:11.103Z,20.08
2018-11-20T10:04:51.683Z,17.90
2018-11-20T10:07:59.265Z,16.12
2018-11-20T10:10:57.972Z,16.62
2018-11-20T10:14:03.289Z,20.90
2018-11-20T10:17:04.548Z,16.35
2018-11-20T10:19:56.009Z,18.75
2018-11-20T10:22:47.598Z,17.95
2018-11-20T10:25:41.210Z,19.52
2018-11-20T10:28:33.311Z,18.15
2018-11-20T10:31:37.406Z,21.52
2018-11-20T10:34:39.120Z,16.95
2018-11-20T10:37:25.733Z,17.25
2018-11-20T10:40:26.693Z,18.65
2018-11-20T10:43:37.192Z,18.65
2018-11-20T10:46:28.443Z,15.95
2018-11-20T10:49:39.092Z,16.73
2018-11-20T10:52:34.590Z,17.20
2018-11-20T10:55:41.927Z,15.50
2018-11-20T10:58:33.007Z,18.55
2018-11-20T11:01:40.726Z,22.05
2018-11-20T11:04:38.908Z,17.27
2018-11-20T11:07:29.791Z,21.87
2018-11-20T11:10:12.149Z,16.67
2018-11-20T11:13:04.434Z,21.00
2018-11-20T11:15:55.220Z,17.65
2018-11-20T11:18:52.279Z,17.23
2018-11-20T11:21:49.671Z,18.30
2018-11-20T11:24:57.003Z,19.15
2018-11-20T11:28:04.857Z,18.48
2018-11-20T11:31:03.255Z,17.27
2018-11-20T11:33:54.186Z,17.62
2018-11-20T11:36:42.470Z,17.27
2018-11-20T11:39:43.372Z,16.32
2018-11-20T11:42:34.014Z,18.67
2018-11-20T11:45:17.692Z,19.30
2018-11-20T11:48:14.034Z,21.80
2018-11-20T11:51:14.478Z,21.52
2018-11-20T11:54:06.912Z,19.17
2018-11-20T11:57:02.096Z,17.27
2018-11-20T11:59:53.946Z,16.35
2018-11-20T12:05:46.812Z,16.93
2018-11-20T12:08:57.079Z,19.50
2018-11-20T12:11:39.916Z,17.77
2018-11-20T12:14:40.742Z,20.32
2018-11-20T12:17:33.092Z,16.57
2018-11-20T12:20:24.021Z,15.15
2018-11-20T12:23:31.409Z,19.62
2018-11-20T12:26:25.377Z,18.70
2018-11-20T12:29:23.842Z,19.60
2018-11-20T12:32:26.647Z,19.27
2018-11-20T12:35:21.076Z,18.77
2018-11-20T12:38:09.998Z,19.55
2018-11-20T12:41:01.678Z,21.62
2018-11-20T12:43:54.850Z,16.55
2018-11-20T12:46:46.212Z,20.60
2018-11-20T12:49:54.029Z,19.00
2018-11-20T12:52:52.586Z,17.37
2018-11-20T12:55:43.534Z,17.23
2018-11-20T12:58:34.609Z,18.62
2018-11-20T13:01:24.746Z,17.77
2018-11-20T13:04:15.139Z,17.07
2018-11-20T13:07:13.261Z,18.27
2018-11-20T13:10:04.761Z,22.10
2018-11-20T13:12:56.597Z,17.87
2018-11-20T13:16:00.248Z,19.42
2018-11-20T13:18:54.216Z,21.07
2018-11-20T13:21:44.936Z,23.47
2018-11-20T13:24:37.240Z,20.70
2018-11-20T13:27:28.144Z,18.85
2018-11-20T13:30:19.178Z,22.30
2018-11-20T13:33:10.098Z,20.82
2018-11-20T13:36:01.629Z,18.00
2018-11-20T13:39:06.121Z,22.48
2018-11-20T13:41:57.613Z,18.87
2018-11-20T13:44:55.710Z,22.67
2018-11-20T13:47:46.310Z,21.50
2018-11-20T13:50:39.065Z,25.20
2018-11-20T13:53:36.881Z,20.32
2018-11-20T13:56:44.204Z,22.77
2018-11-20T13:59:36.169Z,20.95
2018-11-20T14:02:26.283Z,21.40
2018-11-20T14:05:22.311Z,24.80
2018-11-20T14:08:21.896Z,25.00
2018-11-20T14:11:14.869Z,27.45
2018-11-20T14:14:06.466Z,30.05
2018-11-20T14:16:57.433Z,25.12
2018-11-20T14:20:05.392Z,29.02
2018-11-20T14:23:04.074Z,38.95
2018-11-20T14:26:03.089Z,35.23
2018-11-20T14:28:50.505Z,42.50
2018-11-20T14:32:01.252Z,37.23
2018-11-20T14:35:02.244Z,37.75
2018-11-20T14:38:00.535Z,34.80
2018-11-20T14:40:51.120Z,34.30
2018-11-20T14:43:56.352Z,40.67
2018-11-20T14:46:47.472Z,37.67
2018-11-20T14:49:49.225Z,34.67
2018-11-20T14:52:51.304Z,33.00
2018-11-20T14:55:52.272Z,38.13
2018-11-20T15:01:26.169Z,36.63
2018-11-20T15:04:18.339Z,38.63
2018-11-20T15:07:19.385Z,30.43
2018-11-20T15:10:10.976Z,35.73
2018-11-20T15:13:04.293Z,32.90
2018-11-20T15:15:58.485Z,35.20
2018-11-20T15:19:13.250Z,35.35
2018-11-20T15:22:08.772Z,36.45
2018-11-20T15:25:03.961Z,30.17
2018-11-20T15:28:00.117Z,36.25
2018-11-20T15:30:58.310Z,30.95
2018-11-20T15:33:43.798Z,32.13
2018-11-20T15:36:33.569Z,31.25
2018-11-20T15:39:17.436Z,28.75
2018-11-20T15:42:13.933Z,31.35
2018-11-20T15:45:23.983Z,35.23
2018-11-20T15:48:24.855Z,32.65
2018-11-20T15:51:19.522Z,26.33
2018-11-20T15:54:21.602Z,30.62
2018-11-20T15:57:11.069Z,23.20
2018-11-20T16:00:03.239Z,20.77
2018-11-20T16:02:55.177Z,26.00
2018-11-20T16:05:46.880Z,23.35
2018-11-20T16:08:54.813Z,25.12
2018-11-20T16:11:47.375Z,22.48
2018-11-20T16:14:42.683Z,22.82
2018-11-20T16:17:41.099Z,23.65
2018-11-20T16:20:39.562Z,21.93
2018-11-20T16:23:34.986Z,18.57
2018-11-20T16:26:30.810Z,20.30
2018-11-20T16:29:27.864Z,19.00
2018-11-20T16:32:19.056Z,21.77
2018-11-20T16:35:00.653Z,24.12
2018-11-20T16:38:07.679Z,18.57
2018-11-20T16:41:06.049Z,18.32
2018-11-20T16:44:01.228Z,20.97
2018-11-20T16:46:56.950Z,18.67
2018-11-20T16:49:53.015Z,21.15
2018-11-20T16:52:52.579Z,24.82
2018-11-20T16:55:46.725Z,18.67
2018-11-20T16:58:42.606Z,22.15
2018-11-20T17:01:36.237Z,17.60
2018-11-20T17:04:28.514Z,20.05
2018-11-20T17:07:30.653Z,24.52
2018-11-20T17:10:17.407Z,21.05
2018-11-20T17:13:10.417Z,21.68
2018-11-20T17:15:59.202Z,19.73
2018-11-20T17:18:50.788Z,22.13
2018-11-20T17:21:41.418Z,23.77
2018-11-20T17:24:32.542Z,24.05
2018-11-20T17:27:24.244Z,22.90
2018-11-20T17:30:14.851Z,19.12
2018-11-20T17:33:07.704Z,22.62
2018-11-20T17:36:08.187Z,23.50
2018-11-20T17:38:59.341Z,20.77
2018-11-20T17:41:45.744Z,17.20
2018-11-20T17:44:38.613Z,20.27
2018-11-20T17:47:43.120Z,19.82
2018-11-20T17:50:27.369Z,23.07
2018-11-20T17:53:19.830Z,21.42
2018-11-20T17:56:16.876Z,22.45
2018-11-20T17:59:08.194Z,24.25
2018-11-20T18:01:59.103Z,20.08
2018-11-20T18:04:42.741Z,21.27
2018-11-20T18:07:45.343Z,23.05
2018-11-20T18:10:36.756Z,23.00
2018-11-20T18:13:18.071Z,22.77
2018-11-20T18:16:16.848Z,17.27
2018-11-20T18:19:04.684Z,18.30
2018-11-20T18:22:02.760Z,23.35
2018-11-20T18:24:57.627Z,21.48
2018-11-20T18:27:52.331Z,19.55
2018-11-20T18:30:44.336Z,21.90
2018-11-20T18:33:33.745Z,16.82
2018-11-20T18:36:21.176Z,20.70
2018-11-20T18:39:32.066Z,20.48
2018-11-20T18:42:24.592Z,20.52
2018-11-20T18:45:16.935Z,15.55
2018-11-20T18:48:10.509Z,20.95
2018-11-20T18:51:01.715Z,19.92
2018-11-20T18:53:53.038Z,20.52
2018-11-20T18:56:46.094Z,17.20
2018-11-20T18:59:56.984Z,19.45
2018-11-20T19:02:48.287Z,20.15
2018-11-20T19:05:35.803Z,14.70
2018-11-20T19:08:37.156Z,20.12
2018-11-20T19:11:42.404Z,20.37
2018-11-20T19:14:33.518Z,17.52
2018-11-20T19:17:31.617Z,20.08
2018-11-20T19:20:30.597Z,17.90
2018-11-20T19:23:29.214Z,22.32
2018-11-20T19:26:20.905Z,20.55
2018-11-20T19:29:24.961Z,21.00
2018-11-20T19:32:14.810Z,19.98
2018-11-20T19:35:10.418Z,17.95
2018-11-20T19:37:54.060Z,19.85
2018-11-20T19:41:01.238Z,20.43
2018-11-20T19:43:56.860Z,19.30
2018-11-20T19:46:52.203Z,19.62
2018-11-20T19:49:35.304Z,20.45
2018-11-20T19:52:26.511Z,17.17
2018-11-20T19:55:29.164Z,19.15
2018-11-20T19:58:24.306Z,21.35
2018-11-20T20:01:15.544Z,20.20
2018-11-20T20:04:04.496Z,18.62
2018-11-20T20:06:54.164Z,21.12
2018-11-20T20:09:45.326Z,19.42
2018-11-20T20:12:34.688Z,19.82
2018-11-20T20:15:35.729Z,20.50
2018-11-20T20:18:36.657Z,17.02
2018-11-20T20:21:29.187Z,21.12
2018-11-20T20:24:32.280Z,21.42
2018-11-20T20:27:23.493Z,19.00
2018-11-20T20:30:13.994Z,19.77
2018-11-20T20:33:17.945Z,22.07
2018-11-20T20:36:09.508Z,21.25
2018-11-20T20:39:17.539Z,23.50
2018-11-20T20:42:08.857Z,20.70
2018-11-20T20:45:09.888Z,17.52
2018-11-20T20:47:54.683Z,24.65
2018-11-20T20:50:55.890Z,19.40
2018-11-20T20:53:47.994Z,22.40
2018-11-20T20:56:42.601Z,18.42
2018-11-20T20:59:35.796Z,18.98
2018-11-20T21:02:31.052Z,21.68
2018-11-20T21:05:23.595Z,22.80
2018-11-20T21:08:15.220Z,21.07
2018-11-20T21:11:19.626Z,23.67
2018-11-20T21:14:19.107Z,24.63
2018-11-20T21:17:17.288Z,23.77
2018-11-20T21:20:18.759Z,20.30
2018-11-20T21:23:16.787Z,22.32
2018-11-20T21:26:04.104Z,20.62
2018-11-20T21:28:55.394Z,22.77
2018-11-20T21:32:02.893Z,21.68
2018-11-20T21:35:10.066Z,24.82
2018-11-20T21:38:01.115Z,19.32
2018-11-20T21:41:02.945Z,23.30
2018-11-20T21:43:47.789Z,20.77
2018-11-20T21:46:55.274Z,21.20
2018-11-20T21:49:57.383Z,23.12
2018-11-20T21:52:48.691Z,22.58
2018-11-20T21:55:47.385Z,23.47
2018-11-20T21:58:48.920Z,23.32
2018-11-20T22:01:41.483Z,24.27
2018-11-20T22:04:26.136Z,20.57
2018-11-20T22:07:34.043Z,22.02
2018-11-20T22:10:29.000Z,24.15
2018-11-20T22:13:19.891Z,23.70
2018-11-20T22:16:11.209Z,21.12
2018-11-20T22:19:02.809Z,22.07
2018-11-20T22:21:54.153Z,25.72
2018-11-20T22:24:58.738Z,22.62
2018-11-20T22:28:06.959Z,22.17
2018-11-20T22:30:52.364Z,24.18
2018-11-20T22:33:46.203Z,19.52
2018-11-20T22:36:40.968Z,25.15
2018-11-20T22:39:25.559Z,27.02
2018-11-20T22:42:23.220Z,24.18
2018-11-20T22:45:15.281Z,24.47
2018-11-20T22:48:22.972Z,28.27
2018-11-20T22:51:14.420Z,23.27
2018-11-20T22:54:12.954Z,23.80
2018-11-20T22:56:59.940Z,22.17
2018-11-20T22:59:54.942Z,24.57
2018-11-20T23:02:39.828Z,25.10
2018-11-20T23:05:22.690Z,27.77
2018-11-20T23:07:56.490Z,24.98
2018-11-20T23:10:29.681Z,29.18
2018-11-20T23:13:02.976Z,27.15
2018-11-20T23:15:35.842Z,27.22
2018-11-20T23:18:08.959Z,26.95
2018-11-20T23:20:41.454Z,27.10
2018-11-20T23:23:14.346Z,27.70
2018-11-20T23:25:47.602Z,26.10
2018-11-20T23:28:20.779Z,24.23
2018-11-20T23:30:53.299Z,25.55
2018-11-20T23:33:26.183Z,28.10
2018-11-20T23:35:59.079Z,25.20
2018-11-20T23:38:32.190Z,26.87
2018-11-20T23:41:05.036Z,24.67
2018-11-20T23:43:37.821Z,24.85
2018-11-20T23:46:11.009Z,26.85
2018-11-20T23:48:44.291Z,24.12
2018-11-20T23:51:17.600Z,24.40
2018-11-20T23:53:49.650Z,29.52
2018-11-20T23:56:22.770Z,27.55
2018-11-20T23:58:54.855Z,26.80
